SAS62A EBBR-EKCH
Flight info
| Callsign | SAS62A |
|---|---|
| Flight time | N/A |
| Altitude | 40000 |
| Route | NIK L191 VICOT N873 SPY/N0451F390 DCT DOSUR P729 TUDLO |
| Aircraft | B736/M-SDE2E3FGHIRWXY/LB1 |
Departure
| Time | 2026-04-30 19:40 |
|---|---|
| Airport | Brussels Airport (EBBR) |
Arrival
| Time | N/A |
|---|---|
| Airport | Copenhagen Kastrup Airport (EKCH) |
| Time | Latitude | Longitude | Altitude | Speed | Heading |
|---|---|---|---|---|---|
| 2026-04-30 19:20 | 50.89251 | 4.48367 | 160 ft | 0 kts | 70° |
| 2026-04-30 19:32 | 50.89252 | 4.48369 | 159 ft | 1 kts | 70° |
| 2026-04-30 19:33 | 50.89259 | 4.48409 | 159 ft | 5 kts | 85° |
| 2026-04-30 19:33 | 50.89234 | 4.48454 | 158 ft | 5 kts | 151° |
| 2026-04-30 19:33 | 50.89193 | 4.48447 | 159 ft | 8 kts | 225° |
| 2026-04-30 19:33 | 50.89160 | 4.48315 | 161 ft | 18 kts | 251° |
| 2026-04-30 19:34 | 50.89101 | 4.48065 | 160 ft | 24 kts | 248° |
| 2026-04-30 19:34 | 50.89074 | 4.47960 | 158 ft | 10 kts | 248° |
| 2026-04-30 19:34 | 50.88953 | 4.47948 | 159 ft | 9 kts | 127° |
| 2026-04-30 19:35 | 50.88934 | 4.48024 | 161 ft | 5 kts | 106° |
| 2026-04-30 19:35 | 50.88919 | 4.48068 | 162 ft | 4 kts | 117° |
| 2026-04-30 19:35 | 50.88919 | 4.48107 | 162 ft | 0 kts | 72° |
| 2026-04-30 19:38 | 50.88919 | 4.48108 | 162 ft | 0 kts | 72° |
| 2026-04-30 19:39 | 50.88924 | 4.48130 | 163 ft | 11 kts | 73° |
| 2026-04-30 19:39 | 50.89062 | 4.48739 | 161 ft | 104 kts | 70° |
| 2026-04-30 19:39 | 50.89379 | 4.50046 | 570 ft | 137 kts | 76° |
| 2026-04-30 19:40 | 50.89608 | 4.51545 | 1302 ft | 152 kts | 73° |
| 2026-04-30 19:40 | 50.90125 | 4.53013 | 2191 ft | 165 kts | 63° |
| 2026-04-30 19:40 | 50.91065 | 4.54197 | 2954 ft | 196 kts | 29° |
| 2026-04-30 19:40 | 50.92503 | 4.54356 | 3754 ft | 227 kts | 353° |
| 2026-04-30 19:41 | 50.93927 | 4.53213 | 4568 ft | 249 kts | 323° |
| 2026-04-30 19:41 | 50.95216 | 4.51239 | 5443 ft | 264 kts | 315° |
| 2026-04-30 19:41 | 50.96518 | 4.49075 | 6315 ft | 278 kts | 316° |
| 2026-04-30 19:41 | 50.97906 | 4.46856 | 7155 ft | 293 kts | 317° |
| 2026-04-30 19:42 | 50.99378 | 4.44587 | 8125 ft | 303 kts | 318° |
| 2026-04-30 19:42 | 51.00877 | 4.42312 | 9264 ft | 304 kts | 318° |
| 2026-04-30 19:42 | 51.02360 | 4.40063 | 10194 ft | 310 kts | 318° |
| 2026-04-30 19:42 | 51.03976 | 4.37611 | 11044 ft | 322 kts | 318° |
| 2026-04-30 19:43 | 51.05615 | 4.35120 | 11743 ft | 337 kts | 318° |
| 2026-04-30 19:43 | 51.07310 | 4.32538 | 12408 ft | 352 kts | 317° |
| 2026-04-30 19:43 | 51.09124 | 4.29771 | 13028 ft | 367 kts | 317° |
| 2026-04-30 19:44 | 51.12911 | 4.23982 | 14173 ft | 385 kts | 317° |
| 2026-04-30 19:44 | 51.14865 | 4.20986 | 14266 ft | 386 kts | 317° |
| 2026-04-30 19:44 | 51.16799 | 4.18113 | 14280 ft | 384 kts | 320° |
| 2026-04-30 19:44 | 51.18895 | 4.15375 | 14883 ft | 393 kts | 323° |
| 2026-04-30 19:45 | 51.21078 | 4.12773 | 15943 ft | 392 kts | 325° |
| 2026-04-30 19:45 | 51.23304 | 4.10208 | 16761 ft | 398 kts | 326° |
| 2026-04-30 19:45 | 51.25652 | 4.07883 | 17540 ft | 401 kts | 335° |
| 2026-04-30 19:45 | 51.28239 | 4.06272 | 18301 ft | 403 kts | 346° |
| 2026-04-30 19:46 | 51.30970 | 4.05363 | 19124 ft | 403 kts | 355° |
| 2026-04-30 19:46 | 51.33738 | 4.05005 | 19853 ft | 406 kts | 360° |
| 2026-04-30 19:46 | 51.36573 | 4.04908 | 20599 ft | 410 kts | 2° |
| 2026-04-30 19:46 | 51.39447 | 4.04911 | 21355 ft | 414 kts | 2° |
| 2026-04-30 19:47 | 51.42346 | 4.04931 | 22112 ft | 418 kts | 2° |
| 2026-04-30 19:47 | 51.44258 | 4.04998 | 22577 ft | 420 kts | 6° |
| 2026-04-30 19:47 | 51.48096 | 4.05942 | 23525 ft | 421 kts | 16° |
| 2026-04-30 19:47 | 51.50969 | 4.06919 | 24172 ft | 428 kts | 8° |
| 2026-04-30 19:48 | 51.53984 | 4.06735 | 24849 ft | 436 kts | 353° |
| 2026-04-30 19:48 | 51.56932 | 4.05612 | 25484 ft | 441 kts | 346° |
| 2026-04-30 19:48 | 51.59868 | 4.04136 | 26113 ft | 446 kts | 343° |
| 2026-04-30 19:48 | 51.62819 | 4.02531 | 26699 ft | 451 kts | 342° |
| 2026-04-30 19:49 | 51.65761 | 4.00891 | 27349 ft | 454 kts | 342° |
| 2026-04-30 19:49 | 51.71750 | 3.97534 | 28507 ft | 462 kts | 342° |
| 2026-04-30 19:49 | 51.74831 | 3.95809 | 29085 ft | 466 kts | 342° |
| 2026-04-30 19:50 | 51.77840 | 3.94125 | 29664 ft | 468 kts | 342° |
| 2026-04-30 19:50 | 51.80698 | 3.92528 | 30210 ft | 471 kts | 342° |
| 2026-04-30 19:50 | 51.83989 | 3.90692 | 30772 ft | 474 kts | 342° |
| 2026-04-30 19:50 | 51.87106 | 3.88956 | 31293 ft | 477 kts | 342° |
| 2026-04-30 19:51 | 51.90212 | 3.87369 | 32076 ft | 473 kts | 346° |
| 2026-04-30 19:51 | 51.93396 | 3.86256 | 32854 ft | 468 kts | 353° |
| 2026-04-30 19:51 | 51.96618 | 3.85670 | 33257 ft | 471 kts | 358° |
| 2026-04-30 19:51 | 51.99884 | 3.85613 | 33288 ft | 467 kts | 4° |
| 2026-04-30 19:52 | 52.06190 | 3.87146 | 33292 ft | 460 kts | 17° |
| 2026-04-30 19:52 | 52.11799 | 3.90567 | 33299 ft | 457 kts | 28° |
| 2026-04-30 19:53 | 52.17124 | 3.96146 | 33301 ft | 453 kts | 41° |
| 2026-04-30 19:53 | 52.21512 | 4.03414 | 33304 ft | 450 kts | 53° |
| 2026-04-30 19:54 | 52.24749 | 4.12001 | 33833 ft | 450 kts | 66° |
| 2026-04-30 19:54 | 52.25875 | 4.16661 | 34770 ft | 441 kts | 72° |
| 2026-04-30 19:54 | 52.26683 | 4.21423 | 35474 ft | 438 kts | 77° |
| 2026-04-30 19:55 | 52.27450 | 4.26172 | 36034 ft | 438 kts | 74° |
| 2026-04-30 19:55 | 52.28334 | 4.30681 | 36537 ft | 438 kts | 71° |
| 2026-04-30 19:55 | 52.29445 | 4.35353 | 37107 ft | 438 kts | 68° |
| 2026-04-30 19:55 | 52.30633 | 4.39777 | 37653 ft | 437 kts | 65° |
| 2026-04-30 19:56 | 52.32019 | 4.44112 | 38070 ft | 439 kts | 61° |
| 2026-04-30 19:56 | 52.33634 | 4.48252 | 38517 ft | 440 kts | 56° |
| 2026-04-30 19:56 | 52.35387 | 4.52074 | 38937 ft | 440 kts | 52° |
| 2026-04-30 19:56 | 52.37370 | 4.55942 | 39362 ft | 441 kts | 50° |
| 2026-04-30 19:57 | 52.39105 | 4.59152 | 39753 ft | 440 kts | 49° |
| 2026-04-30 19:57 | 52.41217 | 4.62985 | 40120 ft | 440 kts | 49° |
| 2026-04-30 19:57 | 52.44564 | 4.69061 | 40328 ft | 444 kts | 50° |
| 2026-04-30 19:58 | 52.45575 | 4.70908 | 40329 ft | 443 kts | 50° |
| 2026-04-30 19:58 | 52.52989 | 4.84675 | 40333 ft | 440 kts | 50° |
| 2026-04-30 19:59 | 52.56984 | 4.92193 | 40337 ft | 440 kts | 50° |
| 2026-04-30 20:00 | 52.62967 | 5.03522 | 40329 ft | 440 kts | 50° |
| 2026-04-30 20:00 | 52.66934 | 5.11070 | 40332 ft | 440 kts | 50° |
| 2026-04-30 20:01 | 52.72883 | 5.22427 | 40339 ft | 440 kts | 50° |
| 2026-04-30 20:01 | 52.76328 | 5.29030 | 40342 ft | 439 kts | 50° |